MSC Bettina — HPFG — position and weather

sailwx.info

Track history (hours):
 
Tides and Currents Weather Stations Pressure Air Temp Water Temp Dewpoint Dewpoint Depression Visibility Wind Speed Wind Dir Waves Ship Positions

MSC Bettina

Last reported at 2014-Nov-16 17:23 UTC. Time now 2014-Nov-27 01:42 UTC.
Position N 34°06' E 025°47'.
Warning: this ship's position is 10 days out of date.

Length 366 m; draft 15 m.

Type: Ship (hazmat cat A). MMSI: 352361000.

Date/timePositionNaut miles runAvg speedWind from/ knotsBaromVisibWave heightAir tempDewpointWater temp
2014-Nov-16 17:23N 34°06' E 025°47'1916.8
2014-Nov-16 16:17N 34°14' E 025°26'1316.9
2014-Nov-16 15:31N 34°19' E 025°12'51716.6
2014-Nov-15 08:25N 38°03' E 015°35'2813.6
2014-Nov-15 06:20N 38°27' E 015°53'12 0.3
2014-Nov-13 14:33N 38°26' E 015°37'1716.9
2014-Nov-13 13:33N 38°22' E 015°16'1616.2
2014-Nov-13 12:33N 38°17' E 014°57'3216.1
2014-Nov-13 10:33N 38°20' E 014°16'1615.6
2014-Nov-13 09:33N 38°22' E 013°56'1615.9
2014-Nov-13 08:33N 38°24' E 013°36'1616.2
2014-Nov-13 07:33N 38°25' E 013°15'1616.0
2014-Nov-13 06:33N 38°27' E 012°55'2215.7
2014-Nov-13 05:09N 38°26' E 012°27'85217.1
2014-Nov-11 03:17N 35°60' W 005°08'1419.0
2014-Nov-11 02:34N 35°58' W 005°24'22715.9
2014-Nov-10 12:18N 37°27' W 009°44'1317.1
2014-Nov-10 11:33N 37°39' W 009°48'1717.0
2014-Nov-10 10:33N 37°55' W 009°53'76116.9
2014-Nov-08 13:33N 49°45' W 003°32'2718.8
2014-Nov-08 12:06N 49°59' W 002°56'1117.3
2014-Nov-08 11:28N 50°01' W 002°39'5015.0
2014-Nov-08 08:08N 50°14' W 001°24'2615.1
2014-Nov-08 06:26N 50°22' W 000°45'2018.3
2014-Nov-08 05:19N 50°27' W 000°14'1519.2
2014-Nov-08 04:34N 50°31' E 000°08'2019.5
2014-Nov-08 03:33N 50°37' E 000°37'1918.6
2014-Nov-08 02:34N 50°47' E 001°01'1716.6
2014-Nov-08 01:34N 50°58' E 001°22'1414.5
2014-Nov-08 00:34N 51°08' E 001°38'1515.5
2014-Nov-07 23:34N 51°21' E 001°53'1817.7
2014-Nov-07 22:34N 51°36' E 002°08'1919.2
2014-Nov-07 21:33N 51°50' E 002°30'2517.7
2014-Nov-07 20:08N 52°02' E 003°05'1117.8
2014-Nov-07 19:32N 52°03' E 003°22'1616.2
2014-Nov-07 18:33N 52°02' E 003°48'8 8.1
2014-Nov-07 17:33N 51°60' E 004°01'3 2.9
2014-Nov-07 16:33N 51°58' E 004°04'0 0.0
2014-Nov-07 15:33N 51°58' E 004°04'0 0.0
2014-Nov-07 14:33N 51°58' E 004°04'0 0.0
2014-Nov-07 13:33N 51°58' E 004°04'0 0.0
2014-Nov-07 12:33N 51°58' E 004°04'0 0.0
2014-Nov-07 11:33N 51°58' E 004°04'0 0.0
2014-Nov-07 10:32N 51°58' E 004°04'0 0.0
2014-Nov-07 09:32N 51°58' E 004°04'0 0.0
2014-Nov-07 08:34N 51°58' E 004°04'0 0.0
2014-Nov-07 07:31N 51°58' E 004°04'0 0.0
2014-Nov-07 06:33N 51°58' E 004°04'0 0.0
2014-Nov-07 05:33N 51°58' E 004°04'0 0.0
2014-Nov-07 04:33N 51°58' E 004°04'0 0.0
2014-Nov-07 03:33N 51°58' E 004°04'0 0.0
2014-Nov-07 02:33N 51°58' E 004°04'0 0.0
2014-Nov-07 01:33N 51°58' E 004°04'0 0.0
2014-Nov-07 00:33N 51°58' E 004°04'0 0.0
2014-Nov-06 23:33N 51°58' E 004°04'0 0.0
2014-Nov-06 22:33N 51°58' E 004°04'0 0.0
2014-Nov-06 21:33N 51°58' E 004°04'0 0.0
2014-Nov-06 20:33N 51°58' E 004°04'0 0.0
2014-Nov-06 19:33N 51°58' E 004°04'0 0.0
2014-Nov-06 18:33N 51°58' E 004°04'0 0.0
2014-Nov-06 17:33N 51°58' E 004°04'  
Track history (hours):
 
Tides and Currents Weather Stations Pressure Air Temp Water Temp Dewpoint Dewpoint Depression Visibility Wind Speed Wind Dir Waves Ship Positions

MSC Bettina

Last reported at 2014-Nov-16 17:23 UTC. Time now 2014-Nov-27 01:42 UTC.
Position N 34°06' E 025°47'.
Warning: this ship's position is 10 days out of date.

Length 366 m; draft 15 m.

Type: Ship (hazmat cat A). MMSI: 352361000.

Date/timePositionNaut miles runAvg speedWind from/ knotsBaromVisibWave heightAir tempDewpointWater temp
2014-Nov-16 17:23N 34°06' E 025°47'1916.8
2014-Nov-16 16:17N 34°14' E 025°26'1316.9
2014-Nov-16 15:31N 34°19' E 025°12'51716.6
2014-Nov-15 08:25N 38°03' E 015°35'2813.6
2014-Nov-15 06:20N 38°27' E 015°53'12 0.3
2014-Nov-13 14:33N 38°26' E 015°37'1716.9
2014-Nov-13 13:33N 38°22' E 015°16'1616.2
2014-Nov-13 12:33N 38°17' E 014°57'3216.1
2014-Nov-13 10:33N 38°20' E 014°16'1615.6
2014-Nov-13 09:33N 38°22' E 013°56'1615.9
2014-Nov-13 08:33N 38°24' E 013°36'1616.2
2014-Nov-13 07:33N 38°25' E 013°15'1616.0
2014-Nov-13 06:33N 38°27' E 012°55'2215.7
2014-Nov-13 05:09N 38°26' E 012°27'85217.1
2014-Nov-11 03:17N 35°60' W 005°08'1419.0
2014-Nov-11 02:34N 35°58' W 005°24'22715.9
2014-Nov-10 12:18N 37°27' W 009°44'1317.1
2014-Nov-10 11:33N 37°39' W 009°48'1717.0
2014-Nov-10 10:33N 37°55' W 009°53'76116.9
2014-Nov-08 13:33N 49°45' W 003°32'2718.8
2014-Nov-08 12:06N 49°59' W 002°56'1117.3
2014-Nov-08 11:28N 50°01' W 002°39'5015.0
2014-Nov-08 08:08N 50°14' W 001°24'2615.1
2014-Nov-08 06:26N 50°22' W 000°45'2018.3
2014-Nov-08 05:19N 50°27' W 000°14'1519.2
2014-Nov-08 04:34N 50°31' E 000°08'2019.5
2014-Nov-08 03:33N 50°37' E 000°37'1918.6
2014-Nov-08 02:34N 50°47' E 001°01'1716.6
2014-Nov-08 01:34N 50°58' E 001°22'1414.5
2014-Nov-08 00:34N 51°08' E 001°38'1515.5
2014-Nov-07 23:34N 51°21' E 001°53'1817.7
2014-Nov-07 22:34N 51°36' E 002°08'1919.2
2014-Nov-07 21:33N 51°50' E 002°30'2517.7
2014-Nov-07 20:08N 52°02' E 003°05'1117.8
2014-Nov-07 19:32N 52°03' E 003°22'1616.2
2014-Nov-07 18:33N 52°02' E 003°48'8 8.1
2014-Nov-07 17:33N 51°60' E 004°01'3 2.9
2014-Nov-07 16:33N 51°58' E 004°04'0 0.0
2014-Nov-07 15:33N 51°58' E 004°04'0 0.0
2014-Nov-07 14:33N 51°58' E 004°04'0 0.0
2014-Nov-07 13:33N 51°58' E 004°04'0 0.0
2014-Nov-07 12:33N 51°58' E 004°04'0 0.0
2014-Nov-07 11:33N 51°58' E 004°04'0 0.0
2014-Nov-07 10:32N 51°58' E 004°04'0 0.0
2014-Nov-07 09:32N 51°58' E 004°04'0 0.0
2014-Nov-07 08:34N 51°58' E 004°04'0 0.0
2014-Nov-07 07:31N 51°58' E 004°04'0 0.0
2014-Nov-07 06:33N 51°58' E 004°04'0 0.0
2014-Nov-07 05:33N 51°58' E 004°04'0 0.0
2014-Nov-07 04:33N 51°58' E 004°04'0 0.0
2014-Nov-07 03:33N 51°58' E 004°04'0 0.0
2014-Nov-07 02:33N 51°58' E 004°04'0 0.0
2014-Nov-07 01:33N 51°58' E 004°04'0 0.0
2014-Nov-07 00:33N 51°58' E 004°04'0 0.0
2014-Nov-06 23:33N 51°58' E 004°04'0 0.0
2014-Nov-06 22:33N 51°58' E 004°04'0 0.0
2014-Nov-06 21:33N 51°58' E 004°04'0 0.0
2014-Nov-06 20:33N 51°58' E 004°04'0 0.0
2014-Nov-06 19:33N 51°58' E 004°04'0 0.0
2014-Nov-06 18:33N 51°58' E 004°04'0 0.0
2014-Nov-06 17:33N 51°58' E 004°04'  

Dump ship's entire track history